PWSweather.com
Personal Weather Stations
Station Observations
BREEJEDURP
'sGravenzande, WestlandNL

'sGravenzandeWestlandNL

Lat: 52.00095260000001, Lon: 4.174256600000035

Elevation: 3

Station Type: Davis Vantage Pro2 Plus

www.breejedurp.nl

High Low Average
Temperature 44.2°F6.8°C 41.7°F5.4°C 42.9°F6.1°C
Dew Point 42.5°F5.8°C 39.8°F4.3°C 41.4°F5.2°C
Winds 6.0 mph 9.7 kmh Calm Calm 2.0 mph E3.2 kmh E
Wind Gusts 11.0 mph17.7 kmh -- 4.0 mph6.4 kmh
Humidity 97% 89% 95%
Pressure 30.33 in1027.1 mb 30.25 in1024.4 mb -
Precipitation 0.01 in0.3 mm - -
Hour Temp Dew Point Humidity Winds Wind Gusts Pressure Precip Precip Rate Daily Precip Total
12:00 AM 43.3°F6.3°C 42.5°F5.8°C 97% 3.0 mph NNW4.8 kmh NNW 5.0 mph8.0 kmh 30.25 in1024.4 mb 0.00 in0.0 mm 0.00 in0.0 mm 0.00 in0.0 mm
12:04 AM 43.3°F6.3°C 42.5°F5.8°C 97% 3.0 mph N4.8 kmh N 6.0 mph9.7 kmh 30.26 in1024.7 mb 0.00 in0.0 mm 0.00 in0.0 mm 0.00 in0.0 mm
12:09 AM 43.3°F6.3°C 42.5°F5.8°C 97% 3.0 mph NNW4.8 kmh NNW 6.0 mph9.7 kmh 30.26 in1024.7 mb 0.00 in0.0 mm 0.00 in0.0 mm 0.00 in0.0 mm
12:14 AM 43.3°F6.3°C 42.5°F5.8°C 97% 3.0 mph N4.8 kmh N 4.0 mph6.4 kmh 30.26 in1024.7 mb 0.00 in0.0 mm 0.00 in0.0 mm 0.00 in0.0 mm
12:19 AM 43.3°F6.3°C 42.5°F5.8°C 97% 2.0 mph NE3.2 kmh NE 3.0 mph4.8 kmh 30.26 in1024.7 mb 0.00 in0.0 mm 0.00 in0.0 mm 0.00 in0.0 mm
12:24 AM 43.3°F6.3°C 42.5°F5.8°C 97% 3.0 mph N4.8 kmh N 4.0 mph6.4 kmh 30.26 in1024.7 mb 0.00 in0.0 mm 0.00 in0.0 mm 0.00 in0.0 mm
12:29 AM 43.3°F6.3°C 42.5°F5.8°C 97% 4.0 mph NNE6.4 kmh NNE 8.0 mph12.9 kmh 30.26 in1024.7 mb 0.00 in0.0 mm 0.00 in0.0 mm 0.00 in0.0 mm
12:34 AM 43.3°F6.3°C 42.5°F5.8°C 97% 2.0 mph NNW3.2 kmh NNW 3.0 mph4.8 kmh 30.26 in1024.7 mb 0.00 in0.0 mm 0.00 in0.0 mm 0.00 in0.0 mm
12:39 AM 43.3°F6.3°C 42.5°F5.8°C 97% 3.0 mph N4.8 kmh N 5.0 mph8.0 kmh 30.26 in1024.7 mb 0.00 in0.0 mm 0.00 in0.0 mm 0.00 in0.0 mm
12:44 AM 43.3°F6.3°C 42.5°F5.8°C 97% 6.0 mph NNW9.7 kmh NNW 8.0 mph12.9 kmh 30.27 in1025.1 mb 0.00 in0.0 mm 0.00 in0.0 mm 0.00 in0.0 mm
12:49 AM 43.3°F6.3°C 42.5°F5.8°C 97% 4.0 mph NNW6.4 kmh NNW 6.0 mph9.7 kmh 30.27 in1025.1 mb 0.00 in0.0 mm 0.00 in0.0 mm 0.00 in0.0 mm
12:54 AM 43.3°F6.3°C 42.5°F5.8°C 97% 4.0 mph NW6.4 kmh NW 6.0 mph9.7 kmh 30.27 in1025.1 mb 0.00 in0.0 mm 0.00 in0.0 mm 0.00 in0.0 mm
12:59 AM 43.3°F6.3°C 42.5°F5.8°C 97% 4.0 mph N6.4 kmh N 8.0 mph12.9 kmh 30.26 in1024.7 mb 0.00 in0.0 mm 0.00 in0.0 mm 0.00 in0.0 mm
01:04 AM 43.3°F6.3°C 42.5°F5.8°C 97% 4.0 mph NNW6.4 kmh NNW 6.0 mph9.7 kmh 30.26 in1024.7 mb 0.00 in0.0 mm 0.00 in0.0 mm 0.00 in0.0 mm
01:09 AM 43.3°F6.3°C 42.5°F5.8°C 97% 6.0 mph N9.7 kmh N 10.0 mph16.1 kmh 30.26 in1024.7 mb 0.00 in0.0 mm 0.00 in0.0 mm 0.00 in0.0 mm
01:14 AM 43.3°F6.3°C 42.5°F5.8°C 97% 5.0 mph NNW8.0 kmh NNW 10.0 mph16.1 kmh 30.26 in1024.7 mb 0.00 in0.0 mm 0.00 in0.0 mm 0.00 in0.0 mm
01:19 AM 43.3°F6.3°C 42.5°F5.8°C 97% 4.0 mph NNE6.4 kmh NNE 10.0 mph16.1 kmh 30.26 in1024.7 mb 0.00 in0.0 mm 0.00 in0.0 mm 0.00 in0.0 mm
01:24 AM 43.3°F6.3°C 42.5°F5.8°C 97% 3.0 mph NNE4.8 kmh NNE 5.0 mph8.0 kmh 30.26 in1024.7 mb 0.00 in0.0 mm 0.00 in0.0 mm 0.00 in0.0 mm
01:29 AM 43.3°F6.3°C 42.5°F5.8°C 97% 3.0 mph N4.8 kmh N 5.0 mph8.0 kmh 30.26 in1024.7 mb 0.00 in0.0 mm 0.00 in0.0 mm 0.00 in0.0 mm
01:34 AM 43.3°F6.3°C 42.5°F5.8°C 97% 3.0 mph NW4.8 kmh NW 5.0 mph8.0 kmh 30.27 in1025.1 mb 0.00 in0.0 mm 0.00 in0.0 mm 0.00 in0.0 mm
01:39 AM 43.3°F6.3°C 42.5°F5.8°C 97% 3.0 mph NNE4.8 kmh NNE 5.0 mph8.0 kmh 30.26 in1024.7 mb 0.00 in0.0 mm 0.00 in0.0 mm 0.00 in0.0 mm
01:44 AM 43.3°F6.3°C 42.5°F5.8°C 97% 3.0 mph N4.8 kmh N 7.0 mph11.3 kmh 30.26 in1024.7 mb 0.00 in0.0 mm 0.00 in0.0 mm 0.00 in0.0 mm
01:49 AM 43.3°F6.3°C 42.5°F5.8°C 97% 3.0 mph N4.8 kmh N 6.0 mph9.7 kmh 30.26 in1024.7 mb 0.00 in0.0 mm 0.00 in0.0 mm 0.00 in0.0 mm
01:54 AM 43.3°F6.3°C 42.5°F5.8°C 97% 3.0 mph NNE4.8 kmh NNE 5.0 mph8.0 kmh 30.27 in1025.1 mb 0.00 in0.0 mm 0.00 in0.0 mm 0.00 in0.0 mm
01:59 AM 43.3°F6.3°C 42.5°F5.8°C 97% 2.0 mph NNE3.2 kmh NNE 3.0 mph4.8 kmh 30.26 in1024.7 mb 0.00 in0.0 mm 0.00 in0.0 mm 0.00 in0.0 mm
02:04 AM 43.3°F6.3°C 42.5°F5.8°C 97% 3.0 mph NNE4.8 kmh NNE 6.0 mph9.7 kmh 30.27 in1025.1 mb 0.00 in0.0 mm 0.00 in0.0 mm 0.00 in0.0 mm
02:09 AM 43.3°F6.3°C 42.5°F5.8°C 97% 3.0 mph NNW4.8 kmh NNW 5.0 mph8.0 kmh 30.27 in1025.1 mb 0.00 in0.0 mm 0.00 in0.0 mm 0.00 in0.0 mm
02:14 AM 43.3°F6.3°C 42.5°F5.8°C 97% 4.0 mph NNW6.4 kmh NNW 8.0 mph12.9 kmh 30.27 in1025.1 mb 0.00 in0.0 mm 0.00 in0.0 mm 0.00 in0.0 mm
02:19 AM 43.3°F6.3°C 42.5°F5.8°C 97% 3.0 mph N4.8 kmh N 4.0 mph6.4 kmh 30.27 in1025.1 mb 0.00 in0.0 mm 0.00 in0.0 mm 0.00 in0.0 mm
02:24 AM 43.3°F6.3°C 42.5°F5.8°C 97% 5.0 mph NNE8.0 kmh NNE 8.0 mph12.9 kmh 30.27 in1025.1 mb 0.00 in0.0 mm 0.00 in0.0 mm 0.00 in0.0 mm
02:29 AM 43.3°F6.3°C 42.5°F5.8°C 97% 5.0 mph NNE8.0 kmh NNE 9.0 mph14.5 kmh 30.27 in1025.1 mb 0.00 in0.0 mm 0.00 in0.0 mm 0.00 in0.0 mm
02:34 AM 43.3°F6.3°C 42.5°F5.8°C 97% 3.0 mph NNE4.8 kmh NNE 6.0 mph9.7 kmh 30.27 in1025.1 mb 0.00 in0.0 mm 0.00 in0.0 mm 0.00 in0.0 mm
02:39 AM 43.3°F6.3°C 42.5°F5.8°C 97% 2.0 mph NNE3.2 kmh NNE 4.0 mph6.4 kmh 30.27 in1025.1 mb 0.00 in0.0 mm 0.00 in0.0 mm 0.00 in0.0 mm
02:44 AM 43.3°F6.3°C 42.5°F5.8°C 97% 5.0 mph NNE8.0 kmh NNE 9.0 mph14.5 kmh 30.27 in1025.1 mb 0.00 in0.0 mm 0.00 in0.0 mm 0.00 in0.0 mm
02:49 AM 43.3°F6.3°C 42.5°F5.8°C 97% 2.0 mph NNE3.2 kmh NNE 4.0 mph6.4 kmh 30.28 in1025.4 mb 0.00 in0.0 mm 0.00 in0.0 mm 0.00 in0.0 mm
02:54 AM 43.3°F6.3°C 42.5°F5.8°C 97% 3.0 mph NE4.8 kmh NE 5.0 mph8.0 kmh 30.28 in1025.4 mb 0.00 in0.0 mm 0.00 in0.0 mm 0.00 in0.0 mm
02:59 AM 43.3°F6.3°C 42.5°F5.8°C 97% 5.0 mph N8.0 kmh N 9.0 mph14.5 kmh 30.28 in1025.4 mb 0.00 in0.0 mm 0.00 in0.0 mm 0.00 in0.0 mm
03:04 AM 43.3°F6.3°C 42.5°F5.8°C 97% 2.0 mph NNE3.2 kmh NNE 6.0 mph9.7 kmh 30.28 in1025.4 mb 0.00 in0.0 mm 0.00 in0.0 mm 0.00 in0.0 mm
03:09 AM 43.3°F6.3°C 42.5°F5.8°C 97% 6.0 mph NNE9.7 kmh NNE 9.0 mph14.5 kmh 30.28 in1025.4 mb 0.00 in0.0 mm 0.00 in0.0 mm 0.00 in0.0 mm
03:14 AM 43.3°F6.3°C 42.5°F5.8°C 97% 4.0 mph N6.4 kmh N 5.0 mph8.0 kmh 30.28 in1025.4 mb 0.00 in0.0 mm 0.00 in0.0 mm 0.00 in0.0 mm
03:19 AM 43.3°F6.3°C 42.5°F5.8°C 97% 4.0 mph N6.4 kmh N 6.0 mph9.7 kmh 30.28 in1025.4 mb 0.00 in0.0 mm 0.00 in0.0 mm 0.00 in0.0 mm
03:24 AM 43.3°F6.3°C 42.5°F5.8°C 97% 5.0 mph NNE8.0 kmh NNE 9.0 mph14.5 kmh 30.28 in1025.4 mb 0.00 in0.0 mm 0.00 in0.0 mm 0.00 in0.0 mm
03:29 AM 43.5°F6.4°C 42.5°F5.8°C 96% 4.0 mph NNE6.4 kmh NNE 7.0 mph11.3 kmh 30.28 in1025.4 mb 0.00 in0.0 mm 0.00 in0.0 mm 0.00 in0.0 mm
03:34 AM 43.3°F6.3°C 42.3°F5.7°C 96% 5.0 mph NNE8.0 kmh NNE 11.0 mph17.7 kmh 30.28 in1025.4 mb 0.00 in0.0 mm 0.00 in0.0 mm 0.00 in0.0 mm
03:39 AM 43.3°F6.3°C 42.3°F5.7°C 96% 5.0 mph NNE8.0 kmh NNE 8.0 mph12.9 kmh 30.28 in1025.4 mb 0.00 in0.0 mm 0.00 in0.0 mm 0.00 in0.0 mm
03:44 AM 43.3°F6.3°C 42.3°F5.7°C 96% 4.0 mph NNE6.4 kmh NNE 6.0 mph9.7 kmh 30.28 in1025.4 mb 0.00 in0.0 mm 0.00 in0.0 mm 0.00 in0.0 mm
03:49 AM 43.3°F6.3°C 42.3°F5.7°C 96% 3.0 mph NNE4.8 kmh NNE 6.0 mph9.7 kmh 30.28 in1025.4 mb 0.00 in0.0 mm 0.00 in0.0 mm 0.00 in0.0 mm
03:54 AM 43.3°F6.3°C 42.3°F5.7°C 96% 3.0 mph NNE4.8 kmh NNE 6.0 mph9.7 kmh 30.28 in1025.4 mb 0.00 in0.0 mm 0.00 in0.0 mm 0.00 in0.0 mm
03:59 AM 43.3°F6.3°C 42.3°F5.7°C 96% 5.0 mph NNE8.0 kmh NNE 8.0 mph12.9 kmh 30.28 in1025.4 mb 0.00 in0.0 mm 0.00 in0.0 mm 0.00 in0.0 mm
04:04 AM 43.5°F6.4°C 42.5°F5.8°C 96% 6.0 mph NNW9.7 kmh NNW 9.0 mph14.5 kmh 30.28 in1025.4 mb 0.00 in0.0 mm 0.00 in0.0 mm 0.00 in0.0 mm
04:09 AM 43.5°F6.4°C 42.5°F5.8°C 96% 4.0 mph N6.4 kmh N 7.0 mph11.3 kmh 30.28 in1025.4 mb 0.00 in0.0 mm 0.00 in0.0 mm 0.00 in0.0 mm
04:14 AM 43.5°F6.4°C 42.5°F5.8°C 96% 3.0 mph N4.8 kmh N 7.0 mph11.3 kmh 30.28 in1025.4 mb 0.00 in0.0 mm 0.00 in0.0 mm 0.00 in0.0 mm
04:19 AM 43.5°F6.4°C 42.5°F5.8°C 96% 4.0 mph NNE6.4 kmh NNE 6.0 mph9.7 kmh 30.28 in1025.4 mb 0.00 in0.0 mm 0.00 in0.0 mm 0.00 in0.0 mm
04:24 AM 43.5°F6.4°C 42.5°F5.8°C 96% 3.0 mph NNE4.8 kmh NNE 5.0 mph8.0 kmh 30.28 in1025.4 mb 0.00 in0.0 mm 0.00 in0.0 mm 0.00 in0.0 mm
04:29 AM 43.5°F6.4°C 42.5°F5.8°C 96% 6.0 mph NNE9.7 kmh NNE 9.0 mph14.5 kmh 30.28 in1025.4 mb 0.00 in0.0 mm 0.00 in0.0 mm 0.00 in0.0 mm
04:34 AM 43.5°F6.4°C 42.5°F5.8°C 96% 4.0 mph NNE6.4 kmh NNE 8.0 mph12.9 kmh 30.28 in1025.4 mb 0.00 in0.0 mm 0.00 in0.0 mm 0.00 in0.0 mm
04:39 AM 43.5°F6.4°C 42.5°F5.8°C 96% 1.0 mph NNE1.6 kmh NNE 2.0 mph3.2 kmh 30.28 in1025.4 mb 0.00 in0.0 mm 0.00 in0.0 mm 0.00 in0.0 mm
04:44 AM 43.5°F6.4°C 42.5°F5.8°C 96% 4.0 mph NNE6.4 kmh NNE 7.0 mph11.3 kmh 30.28 in1025.4 mb 0.00 in0.0 mm 0.00 in0.0 mm 0.00 in0.0 mm
04:49 AM 43.5°F6.4°C 42.5°F5.8°C 96% 4.0 mph NNE6.4 kmh NNE 7.0 mph11.3 kmh 30.28 in1025.4 mb 0.00 in0.0 mm 0.00 in0.0 mm 0.00 in0.0 mm
04:54 AM 43.3°F6.3°C 42.3°F5.7°C 96% 6.0 mph NNE9.7 kmh NNE 9.0 mph14.5 kmh 30.28 in1025.4 mb 0.00 in0.0 mm 0.00 in0.0 mm 0.00 in0.0 mm
04:59 AM 43.3°F6.3°C 42.3°F5.7°C 96% 4.0 mph NNE6.4 kmh NNE 5.0 mph8.0 kmh 30.28 in1025.4 mb 0.00 in0.0 mm 0.00 in0.0 mm 0.00 in0.0 mm
05:04 AM 43.3°F6.3°C 42.3°F5.7°C 96% 2.0 mph N3.2 kmh N 5.0 mph8.0 kmh 30.28 in1025.4 mb 0.00 in0.0 mm 0.00 in0.0 mm 0.00 in0.0 mm
05:09 AM 43.3°F6.3°C 42.3°F5.7°C 96% 3.0 mph NNE4.8 kmh NNE 6.0 mph9.7 kmh 30.28 in1025.4 mb 0.00 in0.0 mm 0.00 in0.0 mm 0.00 in0.0 mm
05:14 AM 43.3°F6.3°C 42.3°F5.7°C 96% 2.0 mph N3.2 kmh N 3.0 mph4.8 kmh 30.28 in1025.4 mb 0.00 in0.0 mm 0.00 in0.0 mm 0.00 in0.0 mm
05:19 AM 43.2°F6.2°C 42.1°F5.6°C 96% 1.0 mph N1.6 kmh N 3.0 mph4.8 kmh 30.28 in1025.4 mb 0.00 in0.0 mm 0.00 in0.0 mm 0.00 in0.0 mm
05:24 AM 43.2°F6.2°C 42.1°F5.6°C 96% 2.0 mph NNE3.2 kmh NNE 7.0 mph11.3 kmh 30.28 in1025.4 mb 0.00 in0.0 mm 0.00 in0.0 mm 0.00 in0.0 mm
05:29 AM 43.3°F6.3°C 42.3°F5.7°C 96% 3.0 mph N4.8 kmh N 5.0 mph8.0 kmh 30.29 in1025.7 mb 0.00 in0.0 mm 0.00 in0.0 mm 0.00 in0.0 mm
05:34 AM 43.3°F6.3°C 42.3°F5.7°C 96% 4.0 mph N6.4 kmh N 7.0 mph11.3 kmh 30.29 in1025.7 mb 0.00 in0.0 mm 0.00 in0.0 mm 0.00 in0.0 mm
05:39 AM 43.3°F6.3°C 42.3°F5.7°C 96% 3.0 mph NNE4.8 kmh NNE 5.0 mph8.0 kmh 30.29 in1025.7 mb 0.00 in0.0 mm 0.00 in0.0 mm 0.00 in0.0 mm
05:44 AM 43.3°F6.3°C 42.3°F5.7°C 96% 4.0 mph NNE6.4 kmh NNE 8.0 mph12.9 kmh 30.29 in1025.7 mb 0.00 in0.0 mm 0.00 in0.0 mm 0.00 in0.0 mm
05:49 AM 43.3°F6.3°C 42.3°F5.7°C 96% 3.0 mph NNE4.8 kmh NNE 7.0 mph11.3 kmh 30.29 in1025.7 mb 0.00 in0.0 mm 0.00 in0.0 mm 0.00 in0.0 mm
05:54 AM 43.2°F6.2°C 42.1°F5.6°C 96% 4.0 mph N6.4 kmh N 8.0 mph12.9 kmh 30.29 in1025.7 mb 0.00 in0.0 mm 0.00 in0.0 mm 0.00 in0.0 mm
05:59 AM 43.3°F6.3°C 42.3°F5.7°C 96% 2.0 mph NE3.2 kmh NE 4.0 mph6.4 kmh 30.29 in1025.7 mb 0.00 in0.0 mm 0.00 in0.0 mm 0.00 in0.0 mm
06:04 AM 43.3°F6.3°C 42.5°F5.8°C 97% 4.0 mph N6.4 kmh N 6.0 mph9.7 kmh 30.29 in1025.7 mb 0.00 in0.0 mm 0.00 in0.0 mm 0.00 in0.0 mm
06:09 AM 43.3°F6.3°C 42.5°F5.8°C 97% 3.0 mph NNE4.8 kmh NNE 5.0 mph8.0 kmh 30.29 in1025.7 mb 0.00 in0.0 mm 0.00 in0.0 mm 0.00 in0.0 mm
06:14 AM 43.3°F6.3°C 42.5°F5.8°C 97% 3.0 mph N4.8 kmh N 6.0 mph9.7 kmh 30.29 in1025.7 mb 0.00 in0.0 mm 0.00 in0.0 mm 0.00 in0.0 mm
06:19 AM 43.3°F6.3°C 42.5°F5.8°C 97% 4.0 mph NNE6.4 kmh NNE 8.0 mph12.9 kmh 30.29 in1025.7 mb 0.00 in0.0 mm 0.00 in0.0 mm 0.00 in0.0 mm
06:24 AM 43.3°F6.3°C 42.3°F5.7°C 96% 3.0 mph NNE4.8 kmh NNE 4.0 mph6.4 kmh 30.29 in1025.7 mb 0.00 in0.0 mm 0.00 in0.0 mm 0.00 in0.0 mm
06:29 AM 43.3°F6.3°C 42.3°F5.7°C 96% 6.0 mph N9.7 kmh N 9.0 mph14.5 kmh 30.29 in1025.7 mb 0.00 in0.0 mm 0.00 in0.0 mm 0.00 in0.0 mm
06:34 AM 43.3°F6.3°C 42.3°F5.7°C 96% 5.0 mph NNE8.0 kmh NNE 9.0 mph14.5 kmh 30.29 in1025.7 mb 0.00 in0.0 mm 0.00 in0.0 mm 0.00 in0.0 mm
06:39 AM 43.2°F6.2°C 42.1°F5.6°C 96% 6.0 mph N9.7 kmh N 9.0 mph14.5 kmh 30.29 in1025.7 mb 0.00 in0.0 mm 0.00 in0.0 mm 0.00 in0.0 mm
06:44 AM 43.2°F6.2°C 42.1°F5.6°C 96% 2.0 mph N3.2 kmh N 5.0 mph8.0 kmh 30.29 in1025.7 mb 0.00 in0.0 mm 0.00 in0.0 mm 0.00 in0.0 mm
06:49 AM 43.0°F6.1°C 41.9°F5.5°C 96% 5.0 mph N8.0 kmh N 8.0 mph12.9 kmh 30.29 in1025.7 mb 0.00 in0.0 mm 0.00 in0.0 mm 0.00 in0.0 mm
06:54 AM 43.0°F6.1°C 42.2°F5.7°C 97% 5.0 mph NNE8.0 kmh NNE 7.0 mph11.3 kmh 30.29 in1025.7 mb 0.00 in0.0 mm 0.00 in0.0 mm 0.00 in0.0 mm
06:59 AM 43.0°F6.1°C 42.2°F5.7°C 97% 4.0 mph N6.4 kmh N 5.0 mph8.0 kmh 30.29 in1025.7 mb 0.00 in0.0 mm 0.00 in0.0 mm 0.00 in0.0 mm
07:04 AM 42.8°F6.0°C 42.0°F5.6°C 97% 6.0 mph NNE9.7 kmh NNE 9.0 mph14.5 kmh 30.29 in1025.7 mb 0.00 in0.0 mm 0.00 in0.0 mm 0.00 in0.0 mm
07:09 AM 42.8°F6.0°C 42.0°F5.6°C 97% 4.0 mph NNE6.4 kmh NNE 8.0 mph12.9 kmh 30.29 in1025.7 mb 0.00 in0.0 mm 0.00 in0.0 mm 0.00 in0.0 mm
07:14 AM 42.8°F6.0°C 42.0°F5.6°C 97% 3.0 mph NNE4.8 kmh NNE 5.0 mph8.0 kmh 30.30 in1026.1 mb 0.00 in0.0 mm 0.00 in0.0 mm 0.00 in0.0 mm
07:19 AM 42.6°F5.9°C 41.8°F5.4°C 97% 6.0 mph NNE9.7 kmh NNE 10.0 mph16.1 kmh 30.30 in1026.1 mb 0.00 in0.0 mm 0.00 in0.0 mm 0.00 in0.0 mm
07:24 AM 42.4°F5.8°C 41.7°F5.4°C 97% 2.0 mph NNE3.2 kmh NNE 4.0 mph6.4 kmh 30.30 in1026.1 mb 0.00 in0.0 mm 0.00 in0.0 mm 0.00 in0.0 mm
07:29 AM 42.4°F5.8°C 41.7°F5.4°C 97% 3.0 mph NNE4.8 kmh NNE 6.0 mph9.7 kmh 30.30 in1026.1 mb 0.00 in0.0 mm 0.00 in0.0 mm 0.00 in0.0 mm
07:34 AM 42.4°F5.8°C 41.7°F5.4°C 97% 2.0 mph NNE3.2 kmh NNE 4.0 mph6.4 kmh 30.30 in1026.1 mb 0.00 in0.0 mm 0.00 in0.0 mm 0.00 in0.0 mm
07:39 AM 42.4°F5.8°C 41.7°F5.4°C 97% 1.0 mph NNE1.6 kmh NNE 2.0 mph3.2 kmh 30.30 in1026.1 mb 0.00 in0.0 mm 0.00 in0.0 mm 0.00 in0.0 mm
07:44 AM 42.4°F5.8°C 41.7°F5.4°C 97% 3.0 mph NNE4.8 kmh NNE 5.0 mph8.0 kmh 30.30 in1026.1 mb 0.00 in0.0 mm 0.00 in0.0 mm 0.00 in0.0 mm
07:49 AM 42.4°F5.8°C 41.7°F5.4°C 97% 2.0 mph NNE3.2 kmh NNE 2.0 mph3.2 kmh 30.31 in1026.4 mb 0.00 in0.0 mm 0.00 in0.0 mm 0.00 in0.0 mm
07:54 AM 42.4°F5.8°C 41.7°F5.4°C 97% 3.0 mph NNW4.8 kmh NNW 4.0 mph6.4 kmh 30.31 in1026.4 mb 0.00 in0.0 mm 0.00 in0.0 mm 0.00 in0.0 mm
07:59 AM 42.4°F5.8°C 41.7°F5.4°C 97% 4.0 mph NNE6.4 kmh NNE 5.0 mph8.0 kmh 30.31 in1026.4 mb 0.00 in0.0 mm 0.00 in0.0 mm 0.00 in0.0 mm
08:04 AM 42.4°F5.8°C 41.7°F5.4°C 97% 2.0 mph N3.2 kmh N 5.0 mph8.0 kmh 30.31 in1026.4 mb 0.00 in0.0 mm 0.00 in0.0 mm 0.00 in0.0 mm
08:09 AM 42.4°F5.8°C 41.7°F5.4°C 97% 3.0 mph NNW4.8 kmh NNW 9.0 mph14.5 kmh 30.31 in1026.4 mb 0.00 in0.0 mm 0.00 in0.0 mm 0.00 in0.0 mm
08:14 AM 42.4°F5.8°C 41.7°F5.4°C 97% 4.0 mph N6.4 kmh N 7.0 mph11.3 kmh 30.31 in1026.4 mb 0.00 in0.0 mm 0.00 in0.0 mm 0.00 in0.0 mm
08:19 AM 42.4°F5.8°C 41.7°F5.4°C 97% 5.0 mph NNE8.0 kmh NNE 8.0 mph12.9 kmh 30.31 in1026.4 mb 0.00 in0.0 mm 0.00 in0.0 mm 0.00 in0.0 mm
08:24 AM 42.4°F5.8°C 41.7°F5.4°C 97% 2.0 mph NNE3.2 kmh NNE 4.0 mph6.4 kmh 30.31 in1026.4 mb 0.00 in0.0 mm 0.00 in0.0 mm 0.00 in0.0 mm
08:29 AM 42.4°F5.8°C 41.7°F5.4°C 97% 3.0 mph NNE4.8 kmh NNE 5.0 mph8.0 kmh 30.31 in1026.4 mb 0.00 in0.0 mm 0.00 in0.0 mm 0.00 in0.0 mm
08:34 AM 42.4°F5.8°C 41.7°F5.4°C 97% 2.0 mph NNE3.2 kmh NNE 3.0 mph4.8 kmh 30.31 in1026.4 mb 0.00 in0.0 mm 0.00 in0.0 mm 0.00 in0.0 mm
08:39 AM 42.4°F5.8°C 41.7°F5.4°C 97% 2.0 mph NNE3.2 kmh NNE 5.0 mph8.0 kmh 30.31 in1026.4 mb 0.00 in0.0 mm 0.00 in0.0 mm 0.00 in0.0 mm
08:44 AM 42.4°F5.8°C 41.7°F5.4°C 97% Calm Calm 1.0 mph1.6 kmh 30.31 in1026.4 mb 0.00 in0.0 mm 0.00 in0.0 mm 0.00 in0.0 mm
08:49 AM 42.4°F5.8°C 41.7°F5.4°C 97% 2.0 mph NNE3.2 kmh NNE 5.0 mph8.0 kmh 30.31 in1026.4 mb 0.00 in0.0 mm 0.00 in0.0 mm 0.00 in0.0 mm
08:54 AM 42.4°F5.8°C 41.7°F5.4°C 97% 3.0 mph NNE4.8 kmh NNE 4.0 mph6.4 kmh 30.31 in1026.4 mb 0.00 in0.0 mm 0.00 in0.0 mm 0.00 in0.0 mm
08:59 AM 42.4°F5.8°C 41.7°F5.4°C 97% 5.0 mph NE8.0 kmh NE 8.0 mph12.9 kmh 30.31 in1026.4 mb 0.00 in0.0 mm 0.00 in0.0 mm 0.00 in0.0 mm
09:04 AM 42.4°F5.8°C 41.7°F5.4°C 97% 1.0 mph NNE1.6 kmh NNE 3.0 mph4.8 kmh 30.31 in1026.4 mb 0.00 in0.0 mm 0.00 in0.0 mm 0.00 in0.0 mm
09:09 AM 42.4°F5.8°C 41.7°F5.4°C 97% 2.0 mph N3.2 kmh N 4.0 mph6.4 kmh 30.31 in1026.4 mb 0.00 in0.0 mm 0.00 in0.0 mm 0.00 in0.0 mm
09:14 AM 42.4°F5.8°C 41.7°F5.4°C 97% 3.0 mph NNE4.8 kmh NNE 7.0 mph11.3 kmh 30.31 in1026.4 mb 0.00 in0.0 mm 0.00 in0.0 mm 0.00 in0.0 mm
09:19 AM 42.4°F5.8°C 41.7°F5.4°C 97% 3.0 mph NNE4.8 kmh NNE 5.0 mph8.0 kmh 30.31 in1026.4 mb 0.00 in0.0 mm 0.00 in0.0 mm 0.00 in0.0 mm
09:24 AM 42.4°F5.8°C 41.7°F5.4°C 97% 1.0 mph NNE1.6 kmh NNE 4.0 mph6.4 kmh 30.31 in1026.4 mb 0.00 in0.0 mm 0.00 in0.0 mm 0.00 in0.0 mm
09:29 AM 42.4°F5.8°C 41.7°F5.4°C 97% 1.0 mph NNE1.6 kmh NNE 5.0 mph8.0 kmh 30.31 in1026.4 mb 0.00 in0.0 mm 0.00 in0.0 mm 0.00 in0.0 mm
09:34 AM 42.4°F5.8°C 41.7°F5.4°C 97% Calm Calm 2.0 mph3.2 kmh 30.32 in1026.8 mb 0.00 in0.0 mm 0.00 in0.0 mm 0.00 in0.0 mm
09:39 AM 42.4°F5.8°C 41.7°F5.4°C 97% 3.0 mph NNE4.8 kmh NNE 5.0 mph8.0 kmh 30.32 in1026.8 mb 0.00 in0.0 mm 0.00 in0.0 mm 0.00 in0.0 mm
09:44 AM 42.6°F5.9°C 41.8°F5.4°C 97% 2.0 mph NNE3.2 kmh NNE 5.0 mph8.0 kmh 30.32 in1026.8 mb 0.00 in0.0 mm 0.00 in0.0 mm 0.00 in0.0 mm
09:49 AM 42.6°F5.9°C 41.8°F5.4°C 97% 3.0 mph NNE4.8 kmh NNE 5.0 mph8.0 kmh 30.32 in1026.8 mb 0.00 in0.0 mm 0.00 in0.0 mm 0.00 in0.0 mm
09:54 AM 42.6°F5.9°C 41.8°F5.4°C 97% 1.0 mph NNE1.6 kmh NNE 3.0 mph4.8 kmh 30.32 in1026.8 mb 0.00 in0.0 mm 0.00 in0.0 mm 0.00 in0.0 mm
09:59 AM 42.6°F5.9°C 41.6°F5.3°C 96% 3.0 mph NNW4.8 kmh NNW 7.0 mph11.3 kmh 30.32 in1026.8 mb 0.00 in0.0 mm 0.00 in0.0 mm 0.00 in0.0 mm
10:04 AM 42.6°F5.9°C 41.6°F5.3°C 96% 2.0 mph NNE3.2 kmh NNE 4.0 mph6.4 kmh 30.32 in1026.8 mb 0.00 in0.0 mm 0.00 in0.0 mm 0.00 in0.0 mm
10:09 AM 42.6°F5.9°C 41.6°F5.3°C 96% 1.0 mph NNE1.6 kmh NNE 4.0 mph6.4 kmh 30.32 in1026.8 mb 0.00 in0.0 mm 0.00 in0.0 mm 0.00 in0.0 mm
10:14 AM 42.4°F5.8°C 41.4°F5.2°C 96% 4.0 mph NNE6.4 kmh NNE 9.0 mph14.5 kmh 30.33 in1027.1 mb 0.00 in0.0 mm 0.00 in0.0 mm 0.00 in0.0 mm
10:19 AM 42.4°F5.8°C 41.4°F5.2°C 96% 3.0 mph NNE4.8 kmh NNE 5.0 mph8.0 kmh 30.33 in1027.1 mb 0.00 in0.0 mm 0.00 in0.0 mm 0.00 in0.0 mm
10:24 AM 42.4°F5.8°C 41.4°F5.2°C 96% 3.0 mph N4.8 kmh N 5.0 mph8.0 kmh 30.33 in1027.1 mb 0.00 in0.0 mm 0.00 in0.0 mm 0.00 in0.0 mm
10:29 AM 42.6°F5.9°C 41.6°F5.3°C 96% 3.0 mph NNE4.8 kmh NNE 4.0 mph6.4 kmh 30.33 in1027.1 mb 0.00 in0.0 mm 0.00 in0.0 mm 0.00 in0.0 mm
10:34 AM 42.6°F5.9°C 41.6°F5.3°C 96% 1.0 mph NNE1.6 kmh NNE 3.0 mph4.8 kmh 30.33 in1027.1 mb 0.00 in0.0 mm 0.00 in0.0 mm 0.00 in0.0 mm
10:39 AM 42.6°F5.9°C 41.6°F5.3°C 96% 1.0 mph NNE1.6 kmh NNE 3.0 mph4.8 kmh 30.33 in1027.1 mb 0.00 in0.0 mm 0.00 in0.0 mm 0.00 in0.0 mm
10:44 AM 42.6°F5.9°C 41.6°F5.3°C 96% 1.0 mph NE1.6 kmh NE 1.0 mph1.6 kmh 30.33 in1027.1 mb 0.00 in0.0 mm 0.00 in0.0 mm 0.00 in0.0 mm
10:49 AM 42.6°F5.9°C 41.6°F5.3°C 96% Calm Calm 2.0 mph3.2 kmh 30.33 in1027.1 mb 0.00 in0.0 mm 0.00 in0.0 mm 0.00 in0.0 mm
10:54 AM 42.6°F5.9°C 41.6°F5.3°C 96% 2.0 mph NNE3.2 kmh NNE 3.0 mph4.8 kmh 30.33 in1027.1 mb 0.00 in0.0 mm 0.00 in0.0 mm 0.00 in0.0 mm
10:59 AM 42.8°F6.0°C 41.7°F5.4°C 96% 1.0 mph NNE1.6 kmh NNE 3.0 mph4.8 kmh 30.33 in1027.1 mb 0.00 in0.0 mm 0.00 in0.0 mm 0.00 in0.0 mm
11:04 AM 43.0°F6.1°C 41.9°F5.5°C 96% 1.0 mph NNE1.6 kmh NNE 3.0 mph4.8 kmh 30.33 in1027.1 mb 0.00 in0.0 mm 0.00 in0.0 mm 0.00 in0.0 mm
11:09 AM 43.2°F6.2°C 42.1°F5.6°C 96% Calm Calm -- 30.33 in1027.1 mb 0.00 in0.0 mm 0.00 in0.0 mm 0.00 in0.0 mm
11:14 AM 43.2°F6.2°C 42.1°F5.6°C 96% 1.0 mph ENE1.6 kmh ENE 3.0 mph4.8 kmh 30.33 in1027.1 mb 0.00 in0.0 mm 0.00 in0.0 mm 0.00 in0.0 mm
11:19 AM 43.2°F6.2°C 42.1°F5.6°C 96% 1.0 mph NNE1.6 kmh NNE 4.0 mph6.4 kmh 30.33 in1027.1 mb 0.00 in0.0 mm 0.00 in0.0 mm 0.00 in0.0 mm
11:24 AM 43.2°F6.2°C 42.1°F5.6°C 96% Calm Calm 2.0 mph3.2 kmh 30.33 in1027.1 mb 0.00 in0.0 mm 0.00 in0.0 mm 0.00 in0.0 mm
11:29 AM 43.2°F6.2°C 42.1°F5.6°C 96% 1.0 mph NE1.6 kmh NE 3.0 mph4.8 kmh 30.33 in1027.1 mb 0.00 in0.0 mm 0.00 in0.0 mm 0.00 in0.0 mm
11:34 AM 43.2°F6.2°C 42.1°F5.6°C 96% Calm Calm 1.0 mph1.6 kmh 30.33 in1027.1 mb 0.00 in0.0 mm 0.00 in0.0 mm 0.00 in0.0 mm
11:39 AM 43.2°F6.2°C 42.1°F5.6°C 96% Calm Calm 2.0 mph3.2 kmh 30.33 in1027.1 mb 0.00 in0.0 mm 0.00 in0.0 mm 0.00 in0.0 mm
11:44 AM 43.2°F6.2°C 42.1°F5.6°C 96% Calm Calm 1.0 mph1.6 kmh 30.33 in1027.1 mb 0.00 in0.0 mm 0.00 in0.0 mm 0.00 in0.0 mm
11:49 AM 43.2°F6.2°C 42.1°F5.6°C 96% Calm Calm 1.0 mph1.6 kmh 30.33 in1027.1 mb 0.00 in0.0 mm 0.00 in0.0 mm 0.00 in0.0 mm
11:54 AM 43.2°F6.2°C 42.1°F5.6°C 96% Calm Calm 1.0 mph1.6 kmh 30.33 in1027.1 mb 0.00 in0.0 mm 0.00 in0.0 mm 0.00 in0.0 mm
11:59 AM 43.2°F6.2°C 42.1°F5.6°C 96% 1.0 mph ENE1.6 kmh ENE 2.0 mph3.2 kmh 30.33 in1027.1 mb 0.00 in0.0 mm 0.00 in0.0 mm 0.00 in0.0 mm
12:04 PM 43.2°F6.2°C 42.1°F5.6°C 96% Calm Calm -- 30.33 in1027.1 mb 0.00 in0.0 mm 0.00 in0.0 mm 0.00 in0.0 mm
12:09 PM 43.2°F6.2°C 42.1°F5.6°C 96% 2.0 mph ENE3.2 kmh ENE 4.0 mph6.4 kmh 30.33 in1027.1 mb 0.00 in0.0 mm 0.00 in0.0 mm 0.00 in0.0 mm
12:14 PM 43.2°F6.2°C 42.1°F5.6°C 96% 2.0 mph E3.2 kmh E 3.0 mph4.8 kmh 30.33 in1027.1 mb 0.00 in0.0 mm 0.00 in0.0 mm 0.00 in0.0 mm
12:19 PM 43.0°F6.1°C 41.9°F5.5°C 96% 1.0 mph NE1.6 kmh NE 3.0 mph4.8 kmh 30.33 in1027.1 mb 0.00 in0.0 mm 0.00 in0.0 mm 0.00 in0.0 mm
12:24 PM 43.0°F6.1°C 41.9°F5.5°C 96% 2.0 mph ENE3.2 kmh ENE 4.0 mph6.4 kmh 30.33 in1027.1 mb 0.00 in0.0 mm 0.00 in0.0 mm 0.00 in0.0 mm
12:29 PM 42.8°F6.0°C 41.5°F5.3°C 95% Calm Calm 2.0 mph3.2 kmh 30.33 in1027.1 mb 0.00 in0.0 mm 0.00 in0.0 mm 0.00 in0.0 mm
12:34 PM 43.0°F6.1°C 41.9°F5.5°C 96% Calm Calm -- 30.33 in1027.1 mb 0.00 in0.0 mm 0.00 in0.0 mm 0.00 in0.0 mm
12:39 PM 43.0°F6.1°C 41.9°F5.5°C 96% Calm Calm -- 30.33 in1027.1 mb 0.00 in0.0 mm 0.00 in0.0 mm 0.00 in0.0 mm
12:44 PM 43.0°F6.1°C 41.9°F5.5°C 96% Calm Calm 1.0 mph1.6 kmh 30.32 in1026.8 mb 0.00 in0.0 mm 0.00 in0.0 mm 0.00 in0.0 mm
12:49 PM 43.2°F6.2°C 42.1°F5.6°C 96% 1.0 mph E1.6 kmh E 2.0 mph3.2 kmh 30.32 in1026.8 mb 0.00 in0.0 mm 0.00 in0.0 mm 0.00 in0.0 mm
12:54 PM 43.0°F6.1°C 41.6°F5.3°C 95% Calm Calm -- 30.32 in1026.8 mb 0.00 in0.0 mm 0.00 in0.0 mm 0.00 in0.0 mm
12:59 PM 43.0°F6.1°C 41.6°F5.3°C 95% 1.0 mph E1.6 kmh E 4.0 mph6.4 kmh 30.32 in1026.8 mb 0.00 in0.0 mm 0.00 in0.0 mm 0.00 in0.0 mm
01:04 PM 43.0°F6.1°C 41.6°F5.3°C 95% 1.0 mph NE1.6 kmh NE 3.0 mph4.8 kmh 30.32 in1026.8 mb 0.00 in0.0 mm 0.00 in0.0 mm 0.00 in0.0 mm
01:09 PM 43.0°F6.1°C 41.6°F5.3°C 95% Calm Calm -- 30.32 in1026.8 mb 0.00 in0.0 mm 0.00 in0.0 mm 0.00 in0.0 mm
01:14 PM 43.0°F6.1°C 41.6°F5.3°C 95% 2.0 mph NE3.2 kmh NE 3.0 mph4.8 kmh 30.32 in1026.8 mb 0.00 in0.0 mm 0.00 in0.0 mm 0.00 in0.0 mm
01:19 PM 43.0°F6.1°C 41.6°F5.3°C 95% Calm Calm 1.0 mph1.6 kmh 30.32 in1026.8 mb 0.00 in0.0 mm 0.00 in0.0 mm 0.00 in0.0 mm
01:24 PM 43.0°F6.1°C 41.6°F5.3°C 95% Calm Calm 1.0 mph1.6 kmh 30.32 in1026.8 mb 0.00 in0.0 mm 0.00 in0.0 mm 0.00 in0.0 mm
01:29 PM 43.2°F6.2°C 41.8°F5.4°C 95% Calm Calm 1.0 mph1.6 kmh 30.31 in1026.4 mb 0.00 in0.0 mm 0.00 in0.0 mm 0.00 in0.0 mm
01:34 PM 43.2°F6.2°C 41.8°F5.4°C 95% 1.0 mph ENE1.6 kmh ENE 2.0 mph3.2 kmh 30.31 in1026.4 mb 0.00 in0.0 mm 0.00 in0.0 mm 0.00 in0.0 mm
01:39 PM 43.2°F6.2°C 41.6°F5.3°C 94% Calm Calm 2.0 mph3.2 kmh 30.31 in1026.4 mb 0.00 in0.0 mm 0.00 in0.0 mm 0.00 in0.0 mm
01:44 PM 43.3°F6.3°C 41.7°F5.4°C 94% 1.0 mph E1.6 kmh E 3.0 mph4.8 kmh 30.31 in1026.4 mb 0.00 in0.0 mm 0.00 in0.0 mm 0.00 in0.0 mm
01:49 PM 43.3°F6.3°C 41.7°F5.4°C 94% 1.0 mph NE1.6 kmh NE 2.0 mph3.2 kmh 30.31 in1026.4 mb 0.00 in0.0 mm 0.00 in0.0 mm 0.00 in0.0 mm
01:54 PM 43.5°F6.4°C 41.6°F5.3°C 93% 2.0 mph ENE3.2 kmh ENE 3.0 mph4.8 kmh 30.31 in1026.4 mb 0.00 in0.0 mm 0.00 in0.0 mm 0.00 in0.0 mm
01:59 PM 43.5°F6.4°C 41.6°F5.3°C 93% 1.0 mph ENE1.6 kmh ENE 3.0 mph4.8 kmh 30.31 in1026.4 mb 0.00 in0.0 mm 0.00 in0.0 mm 0.00 in0.0 mm
02:04 PM 43.5°F6.4°C 41.6°F5.3°C 93% 1.0 mph E1.6 kmh E 3.0 mph4.8 kmh 30.31 in1026.4 mb 0.00 in0.0 mm 0.00 in0.0 mm 0.00 in0.0 mm
02:09 PM 43.5°F6.4°C 41.6°F5.3°C 93% Calm Calm 1.0 mph1.6 kmh 30.31 in1026.4 mb 0.00 in0.0 mm 0.00 in0.0 mm 0.00 in0.0 mm
02:14 PM 43.5°F6.4°C 41.4°F5.2°C 92% 1.0 mph ENE1.6 kmh ENE 3.0 mph4.8 kmh 30.31 in1026.4 mb 0.00 in0.0 mm 0.00 in0.0 mm 0.00 in0.0 mm
02:19 PM 43.9°F6.6°C 41.7°F5.4°C 92% Calm Calm 1.0 mph1.6 kmh 30.31 in1026.4 mb 0.00 in0.0 mm 0.00 in0.0 mm 0.00 in0.0 mm
02:24 PM 43.9°F6.6°C 41.7°F5.4°C 92% 1.0 mph NE1.6 kmh NE 2.0 mph3.2 kmh 30.31 in1026.4 mb 0.00 in0.0 mm 0.00 in0.0 mm 0.00 in0.0 mm
02:29 PM 43.9°F6.6°C 41.4°F5.2°C 91% 2.0 mph ENE3.2 kmh ENE 3.0 mph4.8 kmh 30.31 in1026.4 mb 0.00 in0.0 mm 0.00 in0.0 mm 0.00 in0.0 mm
02:34 PM 43.9°F6.6°C 41.4°F5.2°C 91% 1.0 mph ENE1.6 kmh ENE 2.0 mph3.2 kmh 30.31 in1026.4 mb 0.00 in0.0 mm 0.00 in0.0 mm 0.00 in0.0 mm
02:39 PM 43.9°F6.6°C 41.4°F5.2°C 91% 1.0 mph NE1.6 kmh NE 3.0 mph4.8 kmh 30.31 in1026.4 mb 0.00 in0.0 mm 0.00 in0.0 mm 0.00 in0.0 mm
02:44 PM 43.9°F6.6°C 41.4°F5.2°C 91% Calm Calm 1.0 mph1.6 kmh 30.31 in1026.4 mb 0.00 in0.0 mm 0.00 in0.0 mm 0.00 in0.0 mm
02:49 PM 44.1°F6.7°C 41.6°F5.3°C 91% 4.0 mph ENE6.4 kmh ENE 6.0 mph9.7 kmh 30.31 in1026.4 mb 0.00 in0.0 mm 0.00 in0.0 mm 0.00 in0.0 mm
02:54 PM 44.1°F6.7°C 41.3°F5.2°C 90% Calm Calm -- 30.31 in1026.4 mb 0.00 in0.0 mm 0.00 in0.0 mm 0.00 in0.0 mm
02:59 PM 44.1°F6.7°C 41.3°F5.2°C 90% 1.0 mph ENE1.6 kmh ENE 2.0 mph3.2 kmh 30.31 in1026.4 mb 0.00 in0.0 mm 0.00 in0.0 mm 0.00 in0.0 mm
03:04 PM 44.1°F6.7°C 41.3°F5.2°C 90% Calm Calm 2.0 mph3.2 kmh 30.31 in1026.4 mb 0.00 in0.0 mm 0.00 in0.0 mm 0.00 in0.0 mm
03:09 PM 44.1°F6.7°C 41.3°F5.2°C 90% 1.0 mph E1.6 kmh E 3.0 mph4.8 kmh 30.31 in1026.4 mb 0.00 in0.0 mm 0.00 in0.0 mm 0.00 in0.0 mm
03:14 PM 44.1°F6.7°C 41.3°F5.2°C 90% Calm Calm -- 30.31 in1026.4 mb 0.00 in0.0 mm 0.00 in0.0 mm 0.00 in0.0 mm
03:19 PM 44.2°F6.8°C 41.5°F5.3°C 90% Calm Calm 1.0 mph1.6 kmh 30.31 in1026.4 mb 0.00 in0.0 mm 0.00 in0.0 mm 0.00 in0.0 mm
03:24 PM 44.1°F6.7°C 41.3°F5.2°C 90% Calm Calm 1.0 mph1.6 kmh 30.31 in1026.4 mb 0.00 in0.0 mm 0.00 in0.0 mm 0.00 in0.0 mm
03:29 PM 44.1°F6.7°C 41.3°F5.2°C 90% 1.0 mph E1.6 kmh E 2.0 mph3.2 kmh 30.31 in1026.4 mb 0.00 in0.0 mm 0.00 in0.0 mm 0.00 in0.0 mm
03:34 PM 44.1°F6.7°C 41.3°F5.2°C 90% 1.0 mph NE1.6 kmh NE 3.0 mph4.8 kmh 30.31 in1026.4 mb 0.00 in0.0 mm 0.00 in0.0 mm 0.00 in0.0 mm
03:39 PM 44.1°F6.7°C 41.3°F5.2°C 90% 1.0 mph NE1.6 kmh NE 2.0 mph3.2 kmh 30.31 in1026.4 mb 0.00 in0.0 mm 0.00 in0.0 mm 0.00 in0.0 mm
03:44 PM 44.1°F6.7°C 41.3°F5.2°C 90% 2.0 mph ENE3.2 kmh ENE 3.0 mph4.8 kmh 30.32 in1026.8 mb 0.00 in0.0 mm 0.00 in0.0 mm 0.00 in0.0 mm
03:49 PM 44.1°F6.7°C 41.3°F5.2°C 90% 1.0 mph ENE1.6 kmh ENE 2.0 mph3.2 kmh 30.32 in1026.8 mb 0.00 in0.0 mm 0.00 in0.0 mm 0.00 in0.0 mm
03:54 PM 44.1°F6.7°C 41.3°F5.2°C 90% Calm Calm 1.0 mph1.6 kmh 30.31 in1026.4 mb 0.00 in0.0 mm 0.00 in0.0 mm 0.00 in0.0 mm
03:59 PM 44.1°F6.7°C 41.3°F5.2°C 90% Calm Calm -- 30.31 in1026.4 mb 0.00 in0.0 mm 0.00 in0.0 mm 0.00 in0.0 mm
04:04 PM 44.1°F6.7°C 41.0°F5.0°C 89% 1.0 mph ENE1.6 kmh ENE 3.0 mph4.8 kmh 30.31 in1026.4 mb 0.00 in0.0 mm 0.00 in0.0 mm 0.00 in0.0 mm
04:09 PM 43.9°F6.6°C 40.9°F4.9°C 89% 2.0 mph E3.2 kmh E 4.0 mph6.4 kmh 30.31 in1026.4 mb 0.00 in0.0 mm 0.00 in0.0 mm 0.01 in0.3 mm
04:14 PM 43.9°F6.6°C 40.9°F4.9°C 89% Calm Calm 1.0 mph1.6 kmh 30.31 in1026.4 mb 0.00 in0.0 mm 0.00 in0.0 mm 0.01 in0.3 mm
04:19 PM 43.9°F6.6°C 40.9°F4.9°C 89% Calm Calm -- 30.31 in1026.4 mb 0.00 in0.0 mm 0.00 in0.0 mm 0.01 in0.3 mm
04:24 PM 43.7°F6.5°C 41.0°F5.0°C 90% Calm Calm 1.0 mph1.6 kmh 30.31 in1026.4 mb 0.00 in0.0 mm 0.00 in0.0 mm 0.01 in0.3 mm
04:29 PM 43.7°F6.5°C 41.0°F5.0°C 90% 1.0 mph ENE1.6 kmh ENE 2.0 mph3.2 kmh 30.31 in1026.4 mb 0.00 in0.0 mm 0.00 in0.0 mm 0.01 in0.3 mm
04:34 PM 43.7°F6.5°C 41.0°F5.0°C 90% 1.0 mph E1.6 kmh E 2.0 mph3.2 kmh 30.31 in1026.4 mb 0.00 in0.0 mm 0.00 in0.0 mm 0.01 in0.3 mm
04:39 PM 43.7°F6.5°C 41.3°F5.2°C 91% 2.0 mph E3.2 kmh E 3.0 mph4.8 kmh 30.31 in1026.4 mb 0.00 in0.0 mm 0.00 in0.0 mm 0.01 in0.3 mm
04:44 PM 43.5°F6.4°C 41.1°F5.1°C 91% 2.0 mph ESE3.2 kmh ESE 4.0 mph6.4 kmh 30.31 in1026.4 mb 0.00 in0.0 mm 0.00 in0.0 mm 0.01 in0.3 mm
04:49 PM 43.5°F6.4°C 41.1°F5.1°C 91% 2.0 mph ESE3.2 kmh ESE 3.0 mph4.8 kmh 30.31 in1026.4 mb 0.00 in0.0 mm 0.00 in0.0 mm 0.01 in0.3 mm
04:54 PM 43.5°F6.4°C 41.1°F5.1°C 91% 2.0 mph ESE3.2 kmh ESE 4.0 mph6.4 kmh 30.31 in1026.4 mb 0.00 in0.0 mm 0.00 in0.0 mm 0.01 in0.3 mm
04:59 PM 43.3°F6.3°C 40.9°F4.9°C 91% 2.0 mph SE3.2 kmh SE 3.0 mph4.8 kmh 30.31 in1026.4 mb 0.00 in0.0 mm 0.00 in0.0 mm 0.01 in0.3 mm
05:04 PM 43.3°F6.3°C 40.9°F4.9°C 91% 3.0 mph ESE4.8 kmh ESE 4.0 mph6.4 kmh 30.31 in1026.4 mb 0.00 in0.0 mm 0.00 in0.0 mm 0.01 in0.3 mm
05:09 PM 43.3°F6.3°C 41.2°F5.1°C 92% 2.0 mph ESE3.2 kmh ESE 3.0 mph4.8 kmh 30.31 in1026.4 mb 0.00 in0.0 mm 0.00 in0.0 mm 0.01 in0.3 mm
05:14 PM 43.2°F6.2°C 41.0°F5.0°C 92% 3.0 mph SE4.8 kmh SE 4.0 mph6.4 kmh 30.31 in1026.4 mb 0.00 in0.0 mm 0.00 in0.0 mm 0.01 in0.3 mm
05:19 PM 43.2°F6.2°C 41.0°F5.0°C 92% 4.0 mph ESE6.4 kmh ESE 6.0 mph9.7 kmh 30.31 in1026.4 mb 0.00 in0.0 mm 0.00 in0.0 mm 0.01 in0.3 mm
05:24 PM 43.2°F6.2°C 41.0°F5.0°C 92% 2.0 mph SE3.2 kmh SE 5.0 mph8.0 kmh 30.31 in1026.4 mb 0.00 in0.0 mm 0.00 in0.0 mm 0.01 in0.3 mm
05:29 PM 43.2°F6.2°C 41.0°F5.0°C 92% 2.0 mph SE3.2 kmh SE 3.0 mph4.8 kmh 30.31 in1026.4 mb 0.00 in0.0 mm 0.00 in0.0 mm 0.01 in0.3 mm
05:34 PM 43.0°F6.1°C 40.8°F4.9°C 92% 2.0 mph SE3.2 kmh SE 2.0 mph3.2 kmh 30.31 in1026.4 mb 0.00 in0.0 mm 0.00 in0.0 mm 0.01 in0.3 mm
05:39 PM 43.0°F6.1°C 40.8°F4.9°C 92% 2.0 mph ESE3.2 kmh ESE 4.0 mph6.4 kmh 30.31 in1026.4 mb 0.00 in0.0 mm 0.00 in0.0 mm 0.01 in0.3 mm
05:44 PM 42.8°F6.0°C 40.6°F4.8°C 92% 3.0 mph ESE4.8 kmh ESE 4.0 mph6.4 kmh 30.31 in1026.4 mb 0.00 in0.0 mm 0.00 in0.0 mm 0.01 in0.3 mm
05:49 PM 42.8°F6.0°C 40.6°F4.8°C 92% 3.0 mph ESE4.8 kmh ESE 6.0 mph9.7 kmh 30.31 in1026.4 mb 0.00 in0.0 mm 0.00 in0.0 mm 0.01 in0.3 mm
05:54 PM 42.6°F5.9°C 40.5°F4.7°C 92% 1.0 mph ESE1.6 kmh ESE 2.0 mph3.2 kmh 30.31 in1026.4 mb 0.00 in0.0 mm 0.00 in0.0 mm 0.01 in0.3 mm
05:59 PM 42.6°F5.9°C 40.5°F4.7°C 92% 2.0 mph ESE3.2 kmh ESE 3.0 mph4.8 kmh 30.31 in1026.4 mb 0.00 in0.0 mm 0.00 in0.0 mm 0.01 in0.3 mm
06:04 PM 42.6°F5.9°C 40.5°F4.7°C 92% 1.0 mph ESE1.6 kmh ESE 2.0 mph3.2 kmh 30.31 in1026.4 mb 0.00 in0.0 mm 0.00 in0.0 mm 0.01 in0.3 mm
06:09 PM 42.6°F5.9°C 40.5°F4.7°C 92% 2.0 mph E3.2 kmh E 4.0 mph6.4 kmh 30.31 in1026.4 mb 0.00 in0.0 mm 0.00 in0.0 mm 0.01 in0.3 mm
06:14 PM 42.6°F5.9°C 40.5°F4.7°C 92% Calm Calm 1.0 mph1.6 kmh 30.31 in1026.4 mb 0.00 in0.0 mm 0.00 in0.0 mm 0.01 in0.3 mm
06:19 PM 42.4°F5.8°C 40.3°F4.6°C 92% Calm Calm -- 30.31 in1026.4 mb 0.00 in0.0 mm 0.00 in0.0 mm 0.01 in0.3 mm
06:24 PM 42.4°F5.8°C 40.3°F4.6°C 92% 1.0 mph E1.6 kmh E 1.0 mph1.6 kmh 30.31 in1026.4 mb 0.00 in0.0 mm 0.00 in0.0 mm 0.01 in0.3 mm
06:29 PM 42.4°F5.8°C 40.3°F4.6°C 92% Calm Calm 1.0 mph1.6 kmh 30.31 in1026.4 mb 0.00 in0.0 mm 0.00 in0.0 mm 0.01 in0.3 mm
06:34 PM 42.3°F5.7°C 40.1°F4.5°C 92% 1.0 mph E1.6 kmh E 2.0 mph3.2 kmh 30.31 in1026.4 mb 0.00 in0.0 mm 0.00 in0.0 mm 0.01 in0.3 mm
06:39 PM 42.3°F5.7°C 40.1°F4.5°C 92% Calm Calm 1.0 mph1.6 kmh 30.31 in1026.4 mb 0.00 in0.0 mm 0.00 in0.0 mm 0.01 in0.3 mm
06:44 PM 42.3°F5.7°C 40.1°F4.5°C 92% Calm Calm -- 30.31 in1026.4 mb 0.00 in0.0 mm 0.00 in0.0 mm 0.01 in0.3 mm
06:49 PM 42.3°F5.7°C 40.1°F4.5°C 92% Calm Calm -- 30.31 in1026.4 mb 0.00 in0.0 mm 0.00 in0.0 mm 0.01 in0.3 mm
06:54 PM 42.3°F5.7°C 40.1°F4.5°C 92% Calm Calm 1.0 mph1.6 kmh 30.31 in1026.4 mb 0.00 in0.0 mm 0.00 in0.0 mm 0.01 in0.3 mm
06:59 PM 42.3°F5.7°C 40.1°F4.5°C 92% Calm Calm -- 30.31 in1026.4 mb 0.00 in0.0 mm 0.00 in0.0 mm 0.01 in0.3 mm
07:04 PM 42.3°F5.7°C 40.1°F4.5°C 92% 1.0 mph E1.6 kmh E 2.0 mph3.2 kmh 30.31 in1026.4 mb 0.00 in0.0 mm 0.00 in0.0 mm 0.01 in0.3 mm
07:09 PM 42.1°F5.6°C 39.9°F4.4°C 92% Calm Calm -- 30.31 in1026.4 mb 0.00 in0.0 mm 0.00 in0.0 mm 0.01 in0.3 mm
07:14 PM 42.1°F5.6°C 39.9°F4.4°C 92% Calm Calm -- 30.32 in1026.8 mb 0.00 in0.0 mm 0.00 in0.0 mm 0.01 in0.3 mm
07:19 PM 42.1°F5.6°C 39.9°F4.4°C 92% Calm Calm -- 30.32 in1026.8 mb 0.00 in0.0 mm 0.00 in0.0 mm 0.01 in0.3 mm
07:24 PM 41.9°F5.5°C 39.8°F4.3°C 92% Calm Calm -- 30.32 in1026.8 mb 0.00 in0.0 mm 0.00 in0.0 mm 0.01 in0.3 mm
07:29 PM 41.9°F5.5°C 40.0°F4.4°C 93% Calm Calm -- 30.32 in1026.8 mb 0.00 in0.0 mm 0.00 in0.0 mm 0.01 in0.3 mm
07:34 PM 41.9°F5.5°C 40.0°F4.4°C 93% Calm Calm -- 30.32 in1026.8 mb 0.00 in0.0 mm 0.00 in0.0 mm 0.01 in0.3 mm
07:39 PM 41.9°F5.5°C 40.0°F4.4°C 93% Calm Calm -- 30.32 in1026.8 mb 0.00 in0.0 mm 0.00 in0.0 mm 0.01 in0.3 mm
07:44 PM 41.9°F5.5°C 40.0°F4.4°C 93% Calm Calm 1.0 mph1.6 kmh 30.32 in1026.8 mb 0.00 in0.0 mm 0.00 in0.0 mm 0.01 in0.3 mm
07:49 PM 41.9°F5.5°C 40.0°F4.4°C 93% Calm Calm 1.0 mph1.6 kmh 30.32 in1026.8 mb 0.00 in0.0 mm 0.00 in0.0 mm 0.01 in0.3 mm
07:54 PM 41.9°F5.5°C 40.0°F4.4°C 93% Calm Calm -- 30.32 in1026.8 mb 0.00 in0.0 mm 0.00 in0.0 mm 0.01 in0.3 mm
07:59 PM 42.1°F5.6°C 40.2°F4.6°C 93% Calm Calm -- 30.32 in1026.8 mb 0.00 in0.0 mm 0.00 in0.0 mm 0.01 in0.3 mm
08:04 PM 42.1°F5.6°C 39.9°F4.4°C 92% Calm Calm -- 30.32 in1026.8 mb 0.00 in0.0 mm 0.00 in0.0 mm 0.01 in0.3 mm
08:09 PM 42.1°F5.6°C 40.2°F4.6°C 93% Calm Calm -- 30.32 in1026.8 mb 0.00 in0.0 mm 0.00 in0.0 mm 0.01 in0.3 mm
08:14 PM 42.1°F5.6°C 39.9°F4.4°C 92% Calm Calm -- 30.32 in1026.8 mb 0.00 in0.0 mm 0.00 in0.0 mm 0.01 in0.3 mm
08:19 PM 41.9°F5.5°C 39.8°F4.3°C 92% Calm Calm -- 30.32 in1026.8 mb 0.00 in0.0 mm 0.00 in0.0 mm 0.01 in0.3 mm
08:24 PM 41.9°F5.5°C 39.8°F4.3°C 92% Calm Calm -- 30.32 in1026.8 mb 0.00 in0.0 mm 0.00 in0.0 mm 0.01 in0.3 mm
08:29 PM 42.1°F5.6°C 39.9°F4.4°C 92% Calm Calm 1.0 mph1.6 kmh 30.32 in1026.8 mb 0.00 in0.0 mm 0.00 in0.0 mm 0.01 in0.3 mm
08:34 PM 42.1°F5.6°C 39.9°F4.4°C 92% 1.0 mph E1.6 kmh E 1.0 mph1.6 kmh 30.32 in1026.8 mb 0.00 in0.0 mm 0.00 in0.0 mm 0.01 in0.3 mm
08:39 PM 41.9°F5.5°C 39.8°F4.3°C 92% Calm Calm -- 30.32 in1026.8 mb 0.00 in0.0 mm 0.00 in0.0 mm 0.01 in0.3 mm
08:44 PM 41.9°F5.5°C 39.8°F4.3°C 92% Calm Calm -- 30.32 in1026.8 mb 0.00 in0.0 mm 0.00 in0.0 mm 0.01 in0.3 mm
08:49 PM 41.9°F5.5°C 39.8°F4.3°C 92% Calm Calm -- 30.32 in1026.8 mb 0.00 in0.0 mm 0.00 in0.0 mm 0.01 in0.3 mm
08:54 PM 41.9°F5.5°C 39.8°F4.3°C 92% Calm Calm -- 30.32 in1026.8 mb 0.00 in0.0 mm 0.00 in0.0 mm 0.01 in0.3 mm
08:59 PM 41.9°F5.5°C 39.8°F4.3°C 92% Calm Calm -- 30.32 in1026.8 mb 0.00 in0.0 mm 0.00 in0.0 mm 0.01 in0.3 mm
09:04 PM 41.9°F5.5°C 39.8°F4.3°C 92% Calm Calm -- 30.32 in1026.8 mb 0.00 in0.0 mm 0.00 in0.0 mm 0.01 in0.3 mm
09:09 PM 41.9°F5.5°C 39.8°F4.3°C 92% Calm Calm -- 30.32 in1026.8 mb 0.00 in0.0 mm 0.00 in0.0 mm 0.01 in0.3 mm
09:14 PM 41.9°F5.5°C 40.0°F4.4°C 93% Calm Calm -- 30.32 in1026.8 mb 0.00 in0.0 mm 0.00 in0.0 mm 0.01 in0.3 mm
09:19 PM 41.9°F5.5°C 40.0°F4.4°C 93% Calm Calm 1.0 mph1.6 kmh 30.32 in1026.8 mb 0.00 in0.0 mm 0.00 in0.0 mm 0.01 in0.3 mm
09:24 PM 41.9°F5.5°C 40.0°F4.4°C 93% 1.0 mph ESE1.6 kmh ESE 3.0 mph4.8 kmh 30.32 in1026.8 mb 0.00 in0.0 mm 0.00 in0.0 mm 0.01 in0.3 mm
09:29 PM 42.1°F5.6°C 40.2°F4.6°C 93% Calm Calm 1.0 mph1.6 kmh 30.32 in1026.8 mb 0.00 in0.0 mm 0.00 in0.0 mm 0.01 in0.3 mm
09:34 PM 42.1°F5.6°C 40.2°F4.6°C 93% 1.0 mph E1.6 kmh E 2.0 mph3.2 kmh 30.32 in1026.8 mb 0.00 in0.0 mm 0.00 in0.0 mm 0.01 in0.3 mm
09:39 PM 42.1°F5.6°C 40.2°F4.6°C 93% 2.0 mph E3.2 kmh E 2.0 mph3.2 kmh 30.32 in1026.8 mb 0.00 in0.0 mm 0.00 in0.0 mm 0.01 in0.3 mm
09:44 PM 42.1°F5.6°C 40.2°F4.6°C 93% 1.0 mph SE1.6 kmh SE 2.0 mph3.2 kmh 30.32 in1026.8 mb 0.00 in0.0 mm 0.00 in0.0 mm 0.01 in0.3 mm
09:49 PM 41.9°F5.5°C 40.0°F4.4°C 93% 1.0 mph SE1.6 kmh SE 2.0 mph3.2 kmh 30.32 in1026.8 mb 0.00 in0.0 mm 0.00 in0.0 mm 0.01 in0.3 mm
09:54 PM 41.9°F5.5°C 40.0°F4.4°C 93% 1.0 mph ESE1.6 kmh ESE 3.0 mph4.8 kmh 30.32 in1026.8 mb 0.00 in0.0 mm 0.00 in0.0 mm 0.01 in0.3 mm
09:59 PM 41.9°F5.5°C 40.0°F4.4°C 93% 2.0 mph SE3.2 kmh SE 3.0 mph4.8 kmh 30.32 in1026.8 mb 0.00 in0.0 mm 0.00 in0.0 mm 0.01 in0.3 mm
10:04 PM 41.9°F5.5°C 40.0°F4.4°C 93% 2.0 mph ESE3.2 kmh ESE 3.0 mph4.8 kmh 30.32 in1026.8 mb 0.00 in0.0 mm 0.00 in0.0 mm 0.01 in0.3 mm
10:09 PM 41.9°F5.5°C 40.0°F4.4°C 93% 2.0 mph ESE3.2 kmh ESE 4.0 mph6.4 kmh 30.32 in1026.8 mb 0.00 in0.0 mm 0.00 in0.0 mm 0.01 in0.3 mm
10:14 PM 41.9°F5.5°C 40.0°F4.4°C 93% 3.0 mph ESE4.8 kmh ESE 3.0 mph4.8 kmh 30.32 in1026.8 mb 0.00 in0.0 mm 0.00 in0.0 mm 0.01 in0.3 mm
10:19 PM 41.9°F5.5°C 40.0°F4.4°C 93% 1.0 mph ESE1.6 kmh ESE 2.0 mph3.2 kmh 30.32 in1026.8 mb 0.00 in0.0 mm 0.00 in0.0 mm 0.01 in0.3 mm
10:24 PM 41.7°F5.4°C 39.8°F4.3°C 93% 3.0 mph ESE4.8 kmh ESE 5.0 mph8.0 kmh 30.31 in1026.4 mb 0.00 in0.0 mm 0.00 in0.0 mm 0.01 in0.3 mm
10:29 PM 41.7°F5.4°C 39.8°F4.3°C 93% 1.0 mph E1.6 kmh E 3.0 mph4.8 kmh 30.31 in1026.4 mb 0.00 in0.0 mm 0.00 in0.0 mm 0.01 in0.3 mm
10:34 PM 41.9°F5.5°C 40.0°F4.4°C 93% Calm Calm 1.0 mph1.6 kmh 30.31 in1026.4 mb 0.00 in0.0 mm 0.00 in0.0 mm 0.01 in0.3 mm
10:39 PM 41.7°F5.4°C 39.8°F4.3°C 93% 2.0 mph E3.2 kmh E 4.0 mph6.4 kmh 30.31 in1026.4 mb 0.00 in0.0 mm 0.00 in0.0 mm 0.01 in0.3 mm
10:44 PM 41.9°F5.5°C 40.3°F4.6°C 94% 2.0 mph SE3.2 kmh SE 2.0 mph3.2 kmh 30.31 in1026.4 mb 0.00 in0.0 mm 0.00 in0.0 mm 0.01 in0.3 mm
10:49 PM 41.9°F5.5°C 40.0°F4.4°C 93% 3.0 mph SE4.8 kmh SE 4.0 mph6.4 kmh 30.31 in1026.4 mb 0.00 in0.0 mm 0.00 in0.0 mm 0.01 in0.3 mm
10:54 PM 41.9°F5.5°C 40.3°F4.6°C 94% 2.0 mph ESE3.2 kmh ESE 3.0 mph4.8 kmh 30.31 in1026.4 mb 0.00 in0.0 mm 0.00 in0.0 mm 0.01 in0.3 mm
10:59 PM 41.9°F5.5°C 40.3°F4.6°C 94% 1.0 mph E1.6 kmh E 3.0 mph4.8 kmh 30.31 in1026.4 mb 0.00 in0.0 mm 0.00 in0.0 mm 0.01 in0.3 mm
11:04 PM 42.1°F5.6°C 40.5°F4.7°C 94% 1.0 mph ESE1.6 kmh ESE 4.0 mph6.4 kmh 30.31 in1026.4 mb 0.00 in0.0 mm 0.00 in0.0 mm 0.01 in0.3 mm
11:09 PM 42.1°F5.6°C 40.5°F4.7°C 94% 2.0 mph SE3.2 kmh SE 3.0 mph4.8 kmh 30.32 in1026.8 mb 0.00 in0.0 mm 0.00 in0.0 mm 0.01 in0.3 mm
11:14 PM 42.1°F5.6°C 40.2°F4.6°C 93% 2.0 mph ESE3.2 kmh ESE 3.0 mph4.8 kmh 30.32 in1026.8 mb 0.00 in0.0 mm 0.00 in0.0 mm 0.01 in0.3 mm
11:19 PM 42.1°F5.6°C 40.5°F4.7°C 94% 3.0 mph ESE4.8 kmh ESE 5.0 mph8.0 kmh 30.32 in1026.8 mb 0.00 in0.0 mm 0.00 in0.0 mm 0.01 in0.3 mm
11:24 PM 42.1°F5.6°C 40.2°F4.6°C 93% 2.0 mph ESE3.2 kmh ESE 3.0 mph4.8 kmh 30.32 in1026.8 mb 0.00 in0.0 mm 0.00 in0.0 mm 0.01 in0.3 mm
11:29 PM 41.9°F5.5°C 40.3°F4.6°C 94% 2.0 mph ESE3.2 kmh ESE 3.0 mph4.8 kmh 30.31 in1026.4 mb 0.00 in0.0 mm 0.00 in0.0 mm 0.01 in0.3 mm
11:34 PM 41.9°F5.5°C 40.0°F4.4°C 93% 3.0 mph SE4.8 kmh SE 4.0 mph6.4 kmh 30.31 in1026.4 mb 0.00 in0.0 mm 0.00 in0.0 mm 0.01 in0.3 mm
11:39 PM 41.9°F5.5°C 40.0°F4.4°C 93% 5.0 mph ESE8.0 kmh ESE 7.0 mph11.3 kmh 30.31 in1026.4 mb 0.00 in0.0 mm 0.00 in0.0 mm 0.01 in0.3 mm
11:44 PM 41.9°F5.5°C 40.0°F4.4°C 93% 3.0 mph ESE4.8 kmh ESE 5.0 mph8.0 kmh 30.31 in1026.4 mb 0.00 in0.0 mm 0.00 in0.0 mm 0.01 in0.3 mm
11:49 PM 41.9°F5.5°C 40.0°F4.4°C 93% 2.0 mph ESE3.2 kmh ESE 7.0 mph11.3 kmh 30.31 in1026.4 mb 0.00 in0.0 mm 0.00 in0.0 mm 0.01 in0.3 mm
11:54 PM 41.9°F5.5°C 40.0°F4.4°C 93% 3.0 mph ESE4.8 kmh ESE 4.0 mph6.4 kmh 30.31 in1026.4 mb 0.00 in0.0 mm 0.00 in0.0 mm 0.01 in0.3 mm
11:59 PM 41.9°F5.5°C 40.0°F4.4°C 93% 3.0 mph ESE4.8 kmh ESE 6.0 mph9.7 kmh 30.31 in1026.4 mb 0.00 in0.0 mm 0.00 in0.0 mm 0.01 in0.3 mm